sensor_id;sensor_type;location;lat;lon;timestamp;temperature;humidity
49731;DHT22;35622;52.008;5.426;2024-02-21T00:01:39;13.50;98.30
49731;DHT22;35622;52.008;5.426;2024-02-21T00:04:04;13.40;98.60
49731;DHT22;35622;52.008;5.426;2024-02-21T00:06:31;13.20;98.70
49731;DHT22;35622;52.008;5.426;2024-02-21T00:08:57;12.90;99.00
49731;DHT22;35622;52.008;5.426;2024-02-21T00:11:22;13.00;99.20
49731;DHT22;35622;52.008;5.426;2024-02-21T00:13:48;13.00;99.10
49731;DHT22;35622;52.008;5.426;2024-02-21T00:16:13;13.00;98.90
49731;DHT22;35622;52.008;5.426;2024-02-21T00:18:41;13.00;99.10
49731;DHT22;35622;52.008;5.426;2024-02-21T00:21:07;13.10;99.10
49731;DHT22;35622;52.008;5.426;2024-02-21T00:23:32;13.10;98.70
49731;DHT22;35622;52.008;5.426;2024-02-21T00:25:58;13.20;98.70
49731;DHT22;35622;52.008;5.426;2024-02-21T00:28:24;13.40;98.20
49731;DHT22;35622;52.008;5.426;2024-02-21T00:30:49;13.10;98.40
49731;DHT22;35622;52.008;5.426;2024-02-21T00:33:17;13.20;98.30
49731;DHT22;35622;52.008;5.426;2024-02-21T00:35:42;13.20;98.60
49731;DHT22;35622;52.008;5.426;2024-02-21T00:38:08;12.90;99.10
49731;DHT22;35622;52.008;5.426;2024-02-21T00:40:34;12.90;99.30
49731;DHT22;35622;52.008;5.426;2024-02-21T00:43:00;12.80;99.40
49731;DHT22;35622;52.008;5.426;2024-02-21T00:45:26;13.00;99.00
49731;DHT22;35622;52.008;5.426;2024-02-21T00:47:51;12.90;99.20
49731;DHT22;35622;52.008;5.426;2024-02-21T00:50:17;13.10;99.10
49731;DHT22;35622;52.008;5.426;2024-02-21T00:52:43;13.30;98.60
49731;DHT22;35622;52.008;5.426;2024-02-21T00:55:09;13.20;98.60
49731;DHT22;35622;52.008;5.426;2024-02-21T00:57:34;12.90;99.10
49731;DHT22;35622;52.008;5.426;2024-02-21T01:00:01;12.90;98.70
49731;DHT22;35622;52.008;5.426;2024-02-21T01:02:26;13.20;98.90
49731;DHT22;35622;52.008;5.426;2024-02-21T01:04:52;13.30;98.40
49731;DHT22;35622;52.008;5.426;2024-02-21T01:07:18;13.20;98.30
49731;DHT22;35622;52.008;5.426;2024-02-21T01:09:43;13.30;98.30
49731;DHT22;35622;52.008;5.426;2024-02-21T01:12:09;13.60;98.20
49731;DHT22;35622;52.008;5.426;2024-02-21T01:14:35;13.70;98.00
49731;DHT22;35622;52.008;5.426;2024-02-21T01:17:00;13.70;97.60
49731;DHT22;35622;52.008;5.426;2024-02-21T01:19:26;13.70;97.50
49731;DHT22;35622;52.008;5.426;2024-02-21T01:21:52;13.70;97.30
49731;DHT22;35622;52.008;5.426;2024-02-21T01:24:17;13.70;97.60
49731;DHT22;35622;52.008;5.426;2024-02-21T01:26:43;13.70;97.60
49731;DHT22;35622;52.008;5.426;2024-02-21T01:29:09;13.80;97.30
49731;DHT22;35622;52.008;5.426;2024-02-21T01:31:34;13.60;97.30
49731;DHT22;35622;52.008;5.426;2024-02-21T01:34:00;13.60;97.60
49731;DHT22;35622;52.008;5.426;2024-02-21T01:36:25;13.70;97.50
49731;DHT22;35622;52.008;5.426;2024-02-21T01:38:51;13.80;97.30
49731;DHT22;35622;52.008;5.426;2024-02-21T01:41:16;13.50;97.30
49731;DHT22;35622;52.008;5.426;2024-02-21T01:43:42;13.50;97.50
49731;DHT22;35622;52.008;5.426;2024-02-21T01:46:08;13.60;97.70
49731;DHT22;35622;52.008;5.426;2024-02-21T01:48:34;13.70;97.90
49731;DHT22;35622;52.008;5.426;2024-02-21T01:51:00;13.70;97.30
49731;DHT22;35622;52.008;5.426;2024-02-21T01:53:33;13.60;97.40
49731;DHT22;35622;52.008;5.426;2024-02-21T01:56:00;13.40;97.60
49731;DHT22;35622;52.008;5.426;2024-02-21T01:58:27;13.40;97.70
49731;DHT22;35622;52.008;5.426;2024-02-21T02:00:56;13.40;97.80
49731;DHT22;35622;52.008;5.426;2024-02-21T02:03:22;13.30;98.10
49731;DHT22;35622;52.008;5.426;2024-02-21T02:05:49;13.40;98.10
49731;DHT22;35622;52.008;5.426;2024-02-21T02:08:24;13.40;98.00
49731;DHT22;35622;52.008;5.426;2024-02-21T02:10:50;13.50;97.80
49731;DHT22;35622;52.008;5.426;2024-02-21T02:13:15;13.50;97.60
49731;DHT22;35622;52.008;5.426;2024-02-21T02:15:46;13.30;98.00
49731;DHT22;35622;52.008;5.426;2024-02-21T02:18:12;13.50;97.90
49731;DHT22;35622;52.008;5.426;2024-02-21T02:20:39;13.60;97.90
49731;DHT22;35622;52.008;5.426;2024-02-21T02:23:28;13.60;97.40
49731;DHT22;35622;52.008;5.426;2024-02-21T02:25:54;13.60;97.60
49731;DHT22;35622;52.008;5.426;2024-02-21T02:28:20;13.50;97.30
49731;DHT22;35622;52.008;5.426;2024-02-21T02:30:46;13.50;97.60
49731;DHT22;35622;52.008;5.426;2024-02-21T02:33:12;13.70;97.60
49731;DHT22;35622;52.008;5.426;2024-02-21T02:35:37;13.30;97.60
49731;DHT22;35622;52.008;5.426;2024-02-21T02:38:04;13.30;98.00
49731;DHT22;35622;52.008;5.426;2024-02-21T02:40:30;13.50;97.40
49731;DHT22;35622;52.008;5.426;2024-02-21T02:42:56;13.30;98.30
49731;DHT22;35622;52.008;5.426;2024-02-21T02:45:23;13.50;97.90
49731;DHT22;35622;52.008;5.426;2024-02-21T02:47:49;13.40;98.00
49731;DHT22;35622;52.008;5.426;2024-02-21T02:50:15;13.40;97.30
49731;DHT22;35622;52.008;5.426;2024-02-21T02:52:41;13.30;97.60
49731;DHT22;35622;52.008;5.426;2024-02-21T02:55:07;13.40;97.90
49731;DHT22;35622;52.008;5.426;2024-02-21T02:57:32;13.50;97.80
49731;DHT22;35622;52.008;5.426;2024-02-21T02:59:58;13.50;97.50
49731;DHT22;35622;52.008;5.426;2024-02-21T03:02:24;13.40;97.70
49731;DHT22;35622;52.008;5.426;2024-02-21T03:04:49;13.50;97.60
49731;DHT22;35622;52.008;5.426;2024-02-21T03:07:15;13.50;97.50
49731;DHT22;35622;52.008;5.426;2024-02-21T03:09:41;13.50;97.50
49731;DHT22;35622;52.008;5.426;2024-02-21T03:12:10;13.50;97.60
49731;DHT22;35622;52.008;5.426;2024-02-21T03:14:36;13.60;97.60
49731;DHT22;35622;52.008;5.426;2024-02-21T03:17:02;13.70;97.30
49731;DHT22;35622;52.008;5.426;2024-02-21T03:19:28;13.70;96.90
49731;DHT22;35622;52.008;5.426;2024-02-21T03:21:54;13.60;97.30
49731;DHT22;35622;52.008;5.426;2024-02-21T03:24:20;13.60;97.30
49731;DHT22;35622;52.008;5.426;2024-02-21T03:26:47;13.70;97.00
49731;DHT22;35622;52.008;5.426;2024-02-21T03:29:14;13.60;97.10
49731;DHT22;35622;52.008;5.426;2024-02-21T03:31:41;13.20;97.50
49731;DHT22;35622;52.008;5.426;2024-02-21T03:34:06;13.30;97.90
49731;DHT22;35622;52.008;5.426;2024-02-21T03:36:32;13.40;97.70
49731;DHT22;35622;52.008;5.426;2024-02-21T03:38:57;13.40;97.60
49731;DHT22;35622;52.008;5.426;2024-02-21T03:41:23;13.40;97.50
49731;DHT22;35622;52.008;5.426;2024-02-21T03:43:49;13.50;97.40
49731;DHT22;35622;52.008;5.426;2024-02-21T03:46:15;13.50;97.40
49731;DHT22;35622;52.008;5.426;2024-02-21T03:48:40;13.30;97.20
49731;DHT22;35622;52.008;5.426;2024-02-21T03:51:06;13.20;97.50
49731;DHT22;35622;52.008;5.426;2024-02-21T03:53:32;13.40;97.50
49731;DHT22;35622;52.008;5.426;2024-02-21T03:56:01;13.40;97.70
49731;DHT22;35622;52.008;5.426;2024-02-21T03:58:28;13.50;97.60
49731;DHT22;35622;52.008;5.426;2024-02-21T04:00:54;13.60;97.20
49731;DHT22;35622;52.008;5.426;2024-02-21T04:03:19;13.50;97.30
49731;DHT22;35622;52.008;5.426;2024-02-21T04:05:45;13.30;97.50
49731;DHT22;35622;52.008;5.426;2024-02-21T04:08:11;13.40;97.60
49731;DHT22;35622;52.008;5.426;2024-02-21T04:10:37;13.60;97.40
49731;DHT22;35622;52.008;5.426;2024-02-21T04:13:03;13.50;97.40
49731;DHT22;35622;52.008;5.426;2024-02-21T04:15:29;13.50;97.40
49731;DHT22;35622;52.008;5.426;2024-02-21T04:17:54;13.70;97.30
49731;DHT22;35622;52.008;5.426;2024-02-21T04:20:20;13.80;97.20
49731;DHT22;35622;52.008;5.426;2024-02-21T04:22:46;13.70;96.90
49731;DHT22;35622;52.008;5.426;2024-02-21T04:25:11;13.50;97.10
49731;DHT22;35622;52.008;5.426;2024-02-21T04:27:38;13.70;97.10
49731;DHT22;35622;52.008;5.426;2024-02-21T04:30:06;13.70;96.90
49731;DHT22;35622;52.008;5.426;2024-02-21T04:32:32;13.70;96.80
49731;DHT22;35622;52.008;5.426;2024-02-21T04:34:58;13.70;96.90
49731;DHT22;35622;52.008;5.426;2024-02-21T04:37:23;13.50;97.00
49731;DHT22;35622;52.008;5.426;2024-02-21T04:39:49;13.30;97.20
49731;DHT22;35622;52.008;5.426;2024-02-21T04:42:15;13.30;97.30
49731;DHT22;35622;52.008;5.426;2024-02-21T04:44:41;13.40;97.70
49731;DHT22;35622;52.008;5.426;2024-02-21T04:47:07;13.40;97.20
49731;DHT22;35622;52.008;5.426;2024-02-21T04:49:33;13.50;97.20
49731;DHT22;35622;52.008;5.426;2024-02-21T04:51:58;13.40;97.20
49731;DHT22;35622;52.008;5.426;2024-02-21T04:54:24;13.40;97.30
49731;DHT22;35622;52.008;5.426;2024-02-21T04:56:50;13.50;97.00
49731;DHT22;35622;52.008;5.426;2024-02-21T04:59:16;13.40;97.20
49731;DHT22;35622;52.008;5.426;2024-02-21T05:01:42;13.40;97.40
49731;DHT22;35622;52.008;5.426;2024-02-21T05:04:08;13.40;97.10
49731;DHT22;35622;52.008;5.426;2024-02-21T05:06:41;13.50;97.50
49731;DHT22;35622;52.008;5.426;2024-02-21T05:09:09;13.60;97.20
49731;DHT22;35622;52.008;5.426;2024-02-21T05:11:35;13.40;97.20
49731;DHT22;35622;52.008;5.426;2024-02-21T05:14:01;13.40;97.30
49731;DHT22;35622;52.008;5.426;2024-02-21T05:16:27;13.50;97.30
49731;DHT22;35622;52.008;5.426;2024-02-21T05:18:52;13.50;96.80
49731;DHT22;35622;52.008;5.426;2024-02-21T05:21:18;13.50;97.20
49731;DHT22;35622;52.008;5.426;2024-02-21T05:23:44;13.60;97.10
49731;DHT22;35622;52.008;5.426;2024-02-21T05:26:10;13.60;97.10
49731;DHT22;35622;52.008;5.426;2024-02-21T05:28:35;13.60;97.00
49731;DHT22;35622;52.008;5.426;2024-02-21T05:31:01;13.70;96.90
49731;DHT22;35622;52.008;5.426;2024-02-21T05:33:26;13.70;96.90
49731;DHT22;35622;52.008;5.426;2024-02-21T05:35:52;13.70;96.90
49731;DHT22;35622;52.008;5.426;2024-02-21T05:38:18;13.40;96.80
49731;DHT22;35622;52.008;5.426;2024-02-21T05:40:44;13.40;96.80
49731;DHT22;35622;52.008;5.426;2024-02-21T05:43:10;13.30;97.20
49731;DHT22;35622;52.008;5.426;2024-02-21T05:45:36;13.50;96.90
49731;DHT22;35622;52.008;5.426;2024-02-21T05:48:02;13.40;97.10
49731;DHT22;35622;52.008;5.426;2024-02-21T05:50:28;13.60;96.90
49731;DHT22;35622;52.008;5.426;2024-02-21T05:52:57;13.60;96.90
49731;DHT22;35622;52.008;5.426;2024-02-21T05:55:23;13.70;96.90
49731;DHT22;35622;52.008;5.426;2024-02-21T05:57:48;13.60;96.70
49731;DHT22;35622;52.008;5.426;2024-02-21T06:00:15;13.60;96.70
49731;DHT22;35622;52.008;5.426;2024-02-21T06:02:41;13.70;96.80
49731;DHT22;35622;52.008;5.426;2024-02-21T06:05:07;13.50;96.90
49731;DHT22;35622;52.008;5.426;2024-02-21T06:07:34;13.40;96.90
49731;DHT22;35622;52.008;5.426;2024-02-21T06:10:02;13.40;97.10
49731;DHT22;35622;52.008;5.426;2024-02-21T06:12:28;13.40;96.90
49731;DHT22;35622;52.008;5.426;2024-02-21T06:14:54;13.40;96.90
49731;DHT22;35622;52.008;5.426;2024-02-21T06:17:19;13.30;97.10
49731;DHT22;35622;52.008;5.426;2024-02-21T06:19:45;13.10;97.20
49731;DHT22;35622;52.008;5.426;2024-02-21T06:22:11;12.90;97.70
49731;DHT22;35622;52.008;5.426;2024-02-21T06:24:37;13.20;97.80
49731;DHT22;35622;52.008;5.426;2024-02-21T06:27:06;13.00;97.60
49731;DHT22;35622;52.008;5.426;2024-02-21T06:29:35;13.10;97.90
49731;DHT22;35622;52.008;5.426;2024-02-21T06:32:01;13.10;97.50
49731;DHT22;35622;52.008;5.426;2024-02-21T06:34:27;13.00;97.50
49731;DHT22;35622;52.008;5.426;2024-02-21T06:36:52;13.10;97.90
49731;DHT22;35622;52.008;5.426;2024-02-21T06:39:18;12.90;97.80
49731;DHT22;35622;52.008;5.426;2024-02-21T06:41:44;13.00;97.60
49731;DHT22;35622;52.008;5.426;2024-02-21T06:44:09;13.00;97.60
49731;DHT22;35622;52.008;5.426;2024-02-21T06:46:35;12.90;97.60
49731;DHT22;35622;52.008;5.426;2024-02-21T06:49:02;13.00;97.80
49731;DHT22;35622;52.008;5.426;2024-02-21T06:51:28;13.00;97.70
49731;DHT22;35622;52.008;5.426;2024-02-21T06:53:54;13.00;97.70
49731;DHT22;35622;52.008;5.426;2024-02-21T06:56:20;13.20;97.70
49731;DHT22;35622;52.008;5.426;2024-02-21T06:58:46;13.20;97.60
49731;DHT22;35622;52.008;5.426;2024-02-21T07:01:12;13.10;97.30
49731;DHT22;35622;52.008;5.426;2024-02-21T07:03:37;12.90;97.70
49731;DHT22;35622;52.008;5.426;2024-02-21T07:06:03;12.90;97.50
49731;DHT22;35622;52.008;5.426;2024-02-21T07:08:29;12.90;97.90
49731;DHT22;35622;52.008;5.426;2024-02-21T07:10:55;12.90;97.90
49731;DHT22;35622;52.008;5.426;2024-02-21T07:13:20;13.10;97.80
49731;DHT22;35622;52.008;5.426;2024-02-21T07:15:48;13.20;97.50
49731;DHT22;35622;52.008;5.426;2024-02-21T07:18:14;13.10;97.50
49731;DHT22;35622;52.008;5.426;2024-02-21T07:20:39;13.10;97.70
49731;DHT22;35622;52.008;5.426;2024-02-21T07:23:09;13.10;97.80
49731;DHT22;35622;52.008;5.426;2024-02-21T07:25:35;13.10;97.80
49731;DHT22;35622;52.008;5.426;2024-02-21T07:28:01;13.10;97.60
49731;DHT22;35622;52.008;5.426;2024-02-21T07:30:26;13.20;97.60
49731;DHT22;35622;52.008;5.426;2024-02-21T07:32:52;13.30;97.30
49731;DHT22;35622;52.008;5.426;2024-02-21T07:35:18;13.30;97.10
49731;DHT22;35622;52.008;5.426;2024-02-21T07:37:44;13.40;97.20
49731;DHT22;35622;52.008;5.426;2024-02-21T07:40:16;13.50;97.10
49731;DHT22;35622;52.008;5.426;2024-02-21T07:42:42;13.40;97.00
49731;DHT22;35622;52.008;5.426;2024-02-21T07:45:08;13.40;97.00
49731;DHT22;35622;52.008;5.426;2024-02-21T07:47:34;13.40;97.00
49731;DHT22;35622;52.008;5.426;2024-02-21T07:50:00;13.30;97.00
49731;DHT22;35622;52.008;5.426;2024-02-21T07:52:26;13.20;96.80
49731;DHT22;35622;52.008;5.426;2024-02-21T07:54:52;13.30;96.90
49731;DHT22;35622;52.008;5.426;2024-02-21T07:57:17;13.10;97.30
49731;DHT22;35622;52.008;5.426;2024-02-21T07:59:43;13.20;97.30
49731;DHT22;35622;52.008;5.426;2024-02-21T08:02:09;13.20;97.20
49731;DHT22;35622;52.008;5.426;2024-02-21T08:04:34;13.30;97.00
49731;DHT22;35622;52.008;5.426;2024-02-21T08:07:00;13.20;96.80
49731;DHT22;35622;52.008;5.426;2024-02-21T08:09:30;13.20;97.10
49731;DHT22;35622;52.008;5.426;2024-02-21T08:11:55;13.20;97.60
49731;DHT22;35622;52.008;5.426;2024-02-21T08:14:21;13.10;97.50
49731;DHT22;35622;52.008;5.426;2024-02-21T08:16:48;13.20;97.60
49731;DHT22;35622;52.008;5.426;2024-02-21T08:19:13;13.20;97.30
49731;DHT22;35622;52.008;5.426;2024-02-21T08:21:39;13.30;97.20
49731;DHT22;35622;52.008;5.426;2024-02-21T08:24:05;13.40;96.90
49731;DHT22;35622;52.008;5.426;2024-02-21T08:26:30;13.30;96.90
49731;DHT22;35622;52.008;5.426;2024-02-21T08:28:57;13.40;97.10
49731;DHT22;35622;52.008;5.426;2024-02-21T08:31:26;13.50;96.90
49731;DHT22;35622;52.008;5.426;2024-02-21T08:34:00;13.40;97.00
49731;DHT22;35622;52.008;5.426;2024-02-21T08:36:32;13.40;97.10
49731;DHT22;35622;52.008;5.426;2024-02-21T08:38:58;13.50;96.80
49731;DHT22;35622;52.008;5.426;2024-02-21T08:41:26;13.10;97.10
49731;DHT22;35622;52.008;5.426;2024-02-21T08:43:53;13.10;97.30
49731;DHT22;35622;52.008;5.426;2024-02-21T08:46:22;13.00;97.10
49731;DHT22;35622;52.008;5.426;2024-02-21T08:48:49;13.10;97.20
49731;DHT22;35622;52.008;5.426;2024-02-21T08:51:16;13.00;97.70
49731;DHT22;35622;52.008;5.426;2024-02-21T08:53:42;13.00;98.00
49731;DHT22;35622;52.008;5.426;2024-02-21T08:56:07;13.10;97.60
49731;DHT22;35622;52.008;5.426;2024-02-21T08:58:34;13.00;98.00
49731;DHT22;35622;52.008;5.426;2024-02-21T09:01:00;13.10;97.20
49731;DHT22;35622;52.008;5.426;2024-02-21T09:03:26;13.30;97.20
49731;DHT22;35622;52.008;5.426;2024-02-21T09:05:53;13.30;97.30
49731;DHT22;35622;52.008;5.426;2024-02-21T09:08:18;13.40;96.90
49731;DHT22;35622;52.008;5.426;2024-02-21T09:10:44;13.40;96.70
49731;DHT22;35622;52.008;5.426;2024-02-21T09:13:10;13.30;96.70
49731;DHT22;35622;52.008;5.426;2024-02-21T09:15:35;13.20;97.00
49731;DHT22;35622;52.008;5.426;2024-02-21T09:18:01;13.20;97.10
49731;DHT22;35622;52.008;5.426;2024-02-21T09:20:26;13.30;97.30
49731;DHT22;35622;52.008;5.426;2024-02-21T09:22:52;13.40;97.30
49731;DHT22;35622;52.008;5.426;2024-02-21T09:25:18;13.30;96.60
49731;DHT22;35622;52.008;5.426;2024-02-21T09:27:44;13.30;97.40
49731;DHT22;35622;52.008;5.426;2024-02-21T09:30:10;13.30;96.80
49731;DHT22;35622;52.008;5.426;2024-02-21T09:32:36;13.20;97.00
49731;DHT22;35622;52.008;5.426;2024-02-21T09:35:03;13.30;96.60
49731;DHT22;35622;52.008;5.426;2024-02-21T09:37:28;13.30;96.40
49731;DHT22;35622;52.008;5.426;2024-02-21T09:39:54;13.40;97.10
49731;DHT22;35622;52.008;5.426;2024-02-21T09:42:21;13.60;96.60
49731;DHT22;35622;52.008;5.426;2024-02-21T09:44:47;13.60;96.50
49731;DHT22;35622;52.008;5.426;2024-02-21T09:47:21;13.50;95.90
49731;DHT22;35622;52.008;5.426;2024-02-21T09:49:48;13.40;96.40
49731;DHT22;35622;52.008;5.426;2024-02-21T09:52:15;13.50;96.20
49731;DHT22;35622;52.008;5.426;2024-02-21T09:54:41;13.20;96.40
49731;DHT22;35622;52.008;5.426;2024-02-21T09:57:10;13.40;96.60
49731;DHT22;35622;52.008;5.426;2024-02-21T09:59:35;13.50;96.50
49731;DHT22;35622;52.008;5.426;2024-02-21T10:02:01;13.60;96.00
49731;DHT22;35622;52.008;5.426;2024-02-21T10:04:27;13.50;96.40
49731;DHT22;35622;52.008;5.426;2024-02-21T10:06:54;13.70;96.00
49731;DHT22;35622;52.008;5.426;2024-02-21T10:09:24;13.70;95.50
49731;DHT22;35622;52.008;5.426;2024-02-21T10:11:53;13.60;95.90
49731;DHT22;35622;52.008;5.426;2024-02-21T10:14:18;13.70;95.90
49731;DHT22;35622;52.008;5.426;2024-02-21T10:16:49;13.90;95.90
49731;DHT22;35622;52.008;5.426;2024-02-21T10:19:18;13.90;95.40
49731;DHT22;35622;52.008;5.426;2024-02-21T10:21:45;13.90;95.20
49731;DHT22;35622;52.008;5.426;2024-02-21T10:24:29;14.00;94.90
49731;DHT22;35622;52.008;5.426;2024-02-21T10:27:05;14.10;95.10
49731;DHT22;35622;52.008;5.426;2024-02-21T10:29:34;13.90;95.00
49731;DHT22;35622;52.008;5.426;2024-02-21T10:32:13;13.90;95.60
49731;DHT22;35622;52.008;5.426;2024-02-21T10:34:40;13.70;95.60
49731;DHT22;35622;52.008;5.426;2024-02-21T10:37:09;13.60;96.40
49731;DHT22;35622;52.008;5.426;2024-02-21T10:39:37;13.40;96.50
49731;DHT22;35622;52.008;5.426;2024-02-21T10:42:03;13.60;96.80
49731;DHT22;35622;52.008;5.426;2024-02-21T10:44:30;13.70;96.40
49731;DHT22;35622;52.008;5.426;2024-02-21T10:46:59;13.60;96.10
49731;DHT22;35622;52.008;5.426;2024-02-21T10:49:30;13.50;96.60
49731;DHT22;35622;52.008;5.426;2024-02-21T10:55:04;13.60;96.70
49731;DHT22;35622;52.008;5.426;2024-02-21T10:57:34;13.50;96.70
49731;DHT22;35622;52.008;5.426;2024-02-21T11:00:01;13.70;96.30
49731;DHT22;35622;52.008;5.426;2024-02-21T11:02:29;13.90;96.50
49731;DHT22;35622;52.008;5.426;2024-02-21T11:04:57;13.90;96.20
49731;DHT22;35622;52.008;5.426;2024-02-21T11:07:23;13.90;96.10
49731;DHT22;35622;52.008;5.426;2024-02-21T11:09:52;13.90;96.30
49731;DHT22;35622;52.008;5.426;2024-02-21T11:12:44;13.90;96.30
49731;DHT22;35622;52.008;5.426;2024-02-21T11:15:11;14.00;96.00
49731;DHT22;35622;52.008;5.426;2024-02-21T11:17:37;13.90;96.10
49731;DHT22;35622;52.008;5.426;2024-02-21T11:20:15;13.80;96.40
49731;DHT22;35622;52.008;5.426;2024-02-21T11:22:44;13.70;96.70
49731;DHT22;35622;52.008;5.426;2024-02-21T11:25:09;13.60;96.50
49731;DHT22;35622;52.008;5.426;2024-02-21T11:27:38;13.50;96.70
49731;DHT22;35622;52.008;5.426;2024-02-21T11:30:05;13.50;96.90
49731;DHT22;35622;52.008;5.426;2024-02-21T11:32:31;13.30;97.10
49731;DHT22;35622;52.008;5.426;2024-02-21T11:35:01;13.20;97.30
49731;DHT22;35622;52.008;5.426;2024-02-21T11:37:28;13.10;97.20
49731;DHT22;35622;52.008;5.426;2024-02-21T11:39:57;13.10;97.60
49731;DHT22;35622;52.008;5.426;2024-02-21T11:42:25;13.30;97.50
49731;DHT22;35622;52.008;5.426;2024-02-21T11:44:52;13.40;97.10
49731;DHT22;35622;52.008;5.426;2024-02-21T11:47:18;13.40;97.10
49731;DHT22;35622;52.008;5.426;2024-02-21T11:49:46;13.60;96.60
49731;DHT22;35622;52.008;5.426;2024-02-21T11:52:12;13.50;96.70
49731;DHT22;35622;52.008;5.426;2024-02-21T11:54:41;13.40;96.40
49731;DHT22;35622;52.008;5.426;2024-02-21T11:57:06;13.10;97.10
49731;DHT22;35622;52.008;5.426;2024-02-21T11:59:33;13.30;97.10
49731;DHT22;35622;52.008;5.426;2024-02-21T12:02:02;13.50;97.00
49731;DHT22;35622;52.008;5.426;2024-02-21T12:04:29;13.40;96.70
49731;DHT22;35622;52.008;5.426;2024-02-21T12:06:57;13.70;96.80
49731;DHT22;35622;52.008;5.426;2024-02-21T12:09:23;14.10;95.80
49731;DHT22;35622;52.008;5.426;2024-02-21T12:12:01;14.30;95.30
49731;DHT22;35622;52.008;5.426;2024-02-21T12:14:29;14.20;95.20
49731;DHT22;35622;52.008;5.426;2024-02-21T12:16:55;14.00;95.50
49731;DHT22;35622;52.008;5.426;2024-02-21T12:19:21;14.20;95.60
49731;DHT22;35622;52.008;5.426;2024-02-21T12:21:48;14.40;94.80
49731;DHT22;35622;52.008;5.426;2024-02-21T12:24:23;14.30;94.60
49731;DHT22;35622;52.008;5.426;2024-02-21T12:26:52;14.50;94.70
49731;DHT22;35622;52.008;5.426;2024-02-21T12:29:21;14.70;94.60
49731;DHT22;35622;52.008;5.426;2024-02-21T12:31:48;14.60;94.10
49731;DHT22;35622;52.008;5.426;2024-02-21T12:34:15;14.50;94.50
49731;DHT22;35622;52.008;5.426;2024-02-21T12:36:42;14.50;95.00
49731;DHT22;35622;52.008;5.426;2024-02-21T12:39:09;14.50;95.30
49731;DHT22;35622;52.008;5.426;2024-02-21T12:41:35;14.50;94.60
49731;DHT22;35622;52.008;5.426;2024-02-21T12:44:06;14.40;94.30
49731;DHT22;35622;52.008;5.426;2024-02-21T12:46:33;14.30;95.10
49731;DHT22;35622;52.008;5.426;2024-02-21T12:48:59;14.50;94.50
49731;DHT22;35622;52.008;5.426;2024-02-21T12:51:24;14.60;94.50
49731;DHT22;35622;52.008;5.426;2024-02-21T12:53:50;14.40;94.60
49731;DHT22;35622;52.008;5.426;2024-02-21T12:56:16;14.60;94.80
49731;DHT22;35622;52.008;5.426;2024-02-21T12:58:42;14.70;94.40
49731;DHT22;35622;52.008;5.426;2024-02-21T13:01:07;14.60;94.40
49731;DHT22;35622;52.008;5.426;2024-02-21T13:03:33;14.60;94.50
49731;DHT22;35622;52.008;5.426;2024-02-21T13:05:59;14.80;94.50
49731;DHT22;35622;52.008;5.426;2024-02-21T13:08:25;14.80;94.60
49731;DHT22;35622;52.008;5.426;2024-02-21T13:10:50;14.90;93.70
49731;DHT22;35622;52.008;5.426;2024-02-21T13:13:16;15.00;93.90
49731;DHT22;35622;52.008;5.426;2024-02-21T13:15:42;15.10;93.90
49731;DHT22;35622;52.008;5.426;2024-02-21T13:18:08;15.10;93.60
49731;DHT22;35622;52.008;5.426;2024-02-21T13:20:35;14.80;93.30
49731;DHT22;35622;52.008;5.426;2024-02-21T13:23:01;14.70;93.60
49731;DHT22;35622;52.008;5.426;2024-02-21T13:25:26;14.70;94.20
49731;DHT22;35622;52.008;5.426;2024-02-21T13:27:52;14.80;93.90
49731;DHT22;35622;52.008;5.426;2024-02-21T13:30:18;15.00;93.50
49731;DHT22;35622;52.008;5.426;2024-02-21T13:32:44;14.90;93.40
49731;DHT22;35622;52.008;5.426;2024-02-21T13:35:12;14.60;93.70
49731;DHT22;35622;52.008;5.426;2024-02-21T13:37:38;14.40;94.50
49731;DHT22;35622;52.008;5.426;2024-02-21T13:40:05;14.50;94.50
49731;DHT22;35622;52.008;5.426;2024-02-21T13:42:30;14.60;94.10
49731;DHT22;35622;52.008;5.426;2024-02-21T13:44:56;14.70;93.80
49731;DHT22;35622;52.008;5.426;2024-02-21T13:47:22;14.50;93.60
49731;DHT22;35622;52.008;5.426;2024-02-21T13:49:47;14.30;94.70
49731;DHT22;35622;52.008;5.426;2024-02-21T13:52:13;14.40;94.60
49731;DHT22;35622;52.008;5.426;2024-02-21T13:54:40;14.40;94.40
49731;DHT22;35622;52.008;5.426;2024-02-21T13:57:05;14.60;94.80
49731;DHT22;35622;52.008;5.426;2024-02-21T13:59:31;14.70;94.00
49731;DHT22;35622;52.008;5.426;2024-02-21T14:01:59;14.80;93.90
49731;DHT22;35622;52.008;5.426;2024-02-21T14:04:24;14.70;93.90
49731;DHT22;35622;52.008;5.426;2024-02-21T14:06:50;14.70;93.90
49731;DHT22;35622;52.008;5.426;2024-02-21T14:09:16;14.40;94.20
49731;DHT22;35622;52.008;5.426;2024-02-21T14:11:41;14.40;94.40
49731;DHT22;35622;52.008;5.426;2024-02-21T14:14:07;14.50;94.00
49731;DHT22;35622;52.008;5.426;2024-02-21T14:16:33;14.50;93.90
49731;DHT22;35622;52.008;5.426;2024-02-21T14:18:59;14.10;94.50
49731;DHT22;35622;52.008;5.426;2024-02-21T14:21:24;14.00;94.40
49731;DHT22;35622;52.008;5.426;2024-02-21T14:23:51;13.90;94.50
49731;DHT22;35622;52.008;5.426;2024-02-21T14:26:18;13.80;94.70
49731;DHT22;35622;52.008;5.426;2024-02-21T14:28:43;13.90;94.20
49731;DHT22;35622;52.008;5.426;2024-02-21T14:31:09;13.90;94.80
49731;DHT22;35622;52.008;5.426;2024-02-21T14:33:35;14.00;94.10
49731;DHT22;35622;52.008;5.426;2024-02-21T14:36:01;13.90;94.30
49731;DHT22;35622;52.008;5.426;2024-02-21T14:38:28;13.80;94.40
49731;DHT22;35622;52.008;5.426;2024-02-21T14:40:53;13.80;94.90
49731;DHT22;35622;52.008;5.426;2024-02-21T14:43:19;14.00;95.00
49731;DHT22;35622;52.008;5.426;2024-02-21T14:45:47;14.10;94.60
49731;DHT22;35622;52.008;5.426;2024-02-21T14:48:13;14.10;94.10
49731;DHT22;35622;52.008;5.426;2024-02-21T14:50:39;13.90;94.40
49731;DHT22;35622;52.008;5.426;2024-02-21T14:53:04;14.10;94.40
49731;DHT22;35622;52.008;5.426;2024-02-21T14:55:30;13.80;94.70
49731;DHT22;35622;52.008;5.426;2024-02-21T14:57:56;13.90;95.50
49731;DHT22;35622;52.008;5.426;2024-02-21T15:00:21;13.70;95.80
49731;DHT22;35622;52.008;5.426;2024-02-21T15:02:55;13.60;95.70
49731;DHT22;35622;52.008;5.426;2024-02-21T15:05:20;13.60;96.00
49731;DHT22;35622;52.008;5.426;2024-02-21T15:07:46;13.80;95.90
49731;DHT22;35622;52.008;5.426;2024-02-21T15:10:11;13.80;95.50
49731;DHT22;35622;52.008;5.426;2024-02-21T15:12:37;13.60;96.30
49731;DHT22;35622;52.008;5.426;2024-02-21T15:15:03;13.60;96.50
49731;DHT22;35622;52.008;5.426;2024-02-21T15:17:29;13.50;96.90
49731;DHT22;35622;52.008;5.426;2024-02-21T15:19:55;13.70;97.10
49731;DHT22;35622;52.008;5.426;2024-02-21T15:22:21;13.80;97.00
49731;DHT22;35622;52.008;5.426;2024-02-21T15:24:48;13.70;96.60
49731;DHT22;35622;52.008;5.426;2024-02-21T15:27:14;13.40;97.00
49731;DHT22;35622;52.008;5.426;2024-02-21T15:29:40;13.30;98.00